Impacts METAR Board INFO
IDs:

KBWI - Baltimore-Washington, MD, US

Updated at: 2358 UTC 23 Feb 2018
Potential Impact None Slight Moderate High
Time23/11Z 23/12Z 23/13Z 23/14Z 23/15Z 23/16Z 23/17Z 23/18Z 23/19Z 23/20Z 23/21Z 23/22Z 23/23Z
VIS3 1.25 1 3 4 1 1.25 1.25 2.5 10 8 6 1.75
CIG7 6 6 6 8 4 4 4 5 9 9 7 7
CoverOVCOVCOVCOVCOVCOVCOVCOVCOVCOVCOVCOVCOVC
FltCatIFRIFRIFRIFRIFRLIFRLIFRLIFRIFRIFRIFRIFRIFR
WX-DZ BR-DZ BRRA BRBRBR-DZ BR-DZ BR-DZ BR-DZ BR----BRBR
WDir1307080906070908013016012000
WSpd4 10 8 7 5 5 5 4 7 5 4 0 0
WGst-- -- -- -- -- -- -- -- -- -- -- -- --
Raw hourly METARs
KBWI 231054Z 13004KT 3SM -DZ BR BKN007 OVC012 04/04 A3058 RMK AO2 DZB18 SLP355 P0000 T00390039
KBWI 231154Z 07010KT 1 1/4SM -DZ BR OVC006 04/04 A3057 RMK AO2 SLP353 P0000 60004 70011 T00440044 10050 20039 56006
KBWI 231254Z 08008KT 1SM R10/P6000FT RA BR BKN006 OVC011 04/04 A3059 RMK AO2 DZE44RAB44 SLP360 P0003 T00390039
KBWI 231404Z 09007KT 3SM BR BKN006 OVC016 04/04 A3057 RMK AO2 RAE1358 P0000 T00440044
KBWI 231454Z 06005KT 4SM BR BKN008 OVC011 04/04 A3057 RMK AO2 RAE1358 SLP353 P0000 60016 T00440044 50000
KBWI 231554Z 07005KT 1SM R10/6000VP6000FT -DZ BR OVC004 05/05 A3054 RMK AO2 DZB46 SLP343 P0000 T00500050
KBWI 231654Z 09005KT 1 1/4SM -DZ BR BKN004 OVC009 05/05 A3051 RMK AO2 SLP332 P0000 T00500050
KBWI 231754Z 08004KT 1 1/4SM -DZ BR BKN004 OVC009 06/05 A3048 RMK AO2 SLP320 P0000 60016 T00560050 10056 20039 58023
KBWI 231854Z 13007KT 2 1/2SM -DZ BR BKN005 OVC011 06/06 A3041 RMK AO2 PRESFR SLP297 P0000 T00610061
KBWI 231954Z 16005KT 10SM BKN009 OVC014 07/06 A3039 RMK AO2 DZE25 SLP292 P0000 T00670056
KBWI 232054Z 12004KT 8SM OVC009 07/06 A3037 RMK AO2 SLP284 60000 T00670061 56036
KBWI 232154Z 00000KT 6SM BR OVC007 06/06 A3036 RMK AO2 SLP280 T00610061
KBWI 232254Z 00000KT 1 3/4SM BR OVC007 06/06 A3034 RMK AO2 SLP274 VIS NW-NE 1 T00610061